Flight Track Log - Related Links

Times and Time Zones

All times are in EDT time to prevent confusion due to time zone crossing. See the DAL1981 flight status page for this flight to view local times or setup timezone preferences in your user account.

Time Position Orientation Groundspeed Altitude Reporting Facility
EDT Latitude Longitude Course Direction KTS MPH feet Rate Location/Type
Tue 03:53:20 PM 38.6500 -121.5500 78° East 185 213 1,500  Level Northern Cal TRACON
Tue 03:55:00 PM 38.4972 -121.2527 80° East  Level FlightAware Approximate
Tue 03:55:31 PM 38.6528 -121.3600 89° East 282 325 5,900  Level Oakland Center
Tue 03:56:00 PM 38.5345 -121.0944 76° East  Level FlightAware Approximate
Tue 03:56:32 PM 38.6600 -121.2575 85° East 292 336 8,500  Level Oakland Center
Tue 03:57:00 PM 38.5641 -120.9328 78° East  Level FlightAware Approximate
Tue 03:57:34 PM 38.6661 -121.1497 86° East 304 350 10,500  Level Oakland Center
Tue 03:58:00 PM 38.5911 -120.7704 78° East  Level FlightAware Approximate
Tue 03:58:35 PM 38.6719 -121.0306 86° East 350 403 11,400  Level Oakland Center
Tue 03:59:36 PM 38.6931 -120.9003 78° East 374 430 13,800 2,049 Climbing Oakland Center
Tue 04:00:38 PM 38.7597 -120.7939 51° Northeast 377 434 15,600 1,707 Climbing Oakland Center
Tue 04:01:39 PM 38.8292 -120.6867 50° Northeast 386 444 17,300 1,770 Climbing Oakland Center
Tue 04:02:40 PM 38.9119 -120.5542 51° Northeast 395 455 19,200 1,610 Climbing Oakland Center
Tue 04:03:42 PM 38.9836 -120.4394 51° Northeast 408 470 20,600 1,659 Climbing Oakland Center
Tue 04:04:43 PM 39.0594 -120.3225 50° Northeast 426 490 22,600 1,268 Climbing Oakland Center
Tue 04:05:45 PM 39.1322 -120.2053 51° Northeast 424 488 23,200 780 Climbing Oakland Center
Tue 04:06:46 PM 39.2125 -120.0792 51° Northeast 448 516 24,200 1,820 Climbing Oakland Center
Tue 04:07:47 PM 39.3083 -119.9828 38° Northeast 433 498 26,900 1,512 Climbing Oakland Center
Tue 04:08:49 PM 39.3864 -119.8664 49° Northeast 431 496 27,300 341 Climbing Oakland Center
Tue 04:09:50 PM 39.4625 -119.7367 53° Northeast 449 517 27,600 439 Climbing Oakland Center
Tue 04:10:52 PM 39.5417 -119.5992 53° Northeast 472 543 28,200 732 Climbing Oakland Center
Tue 04:11:53 PM 39.6228 -119.4619 52° Northeast 478 550 29,100 885 Climbing Oakland Center
Tue 04:12:54 PM 39.7011 -119.3231 54° Northeast 474 545 30,000 927 Climbing Oakland Center
Tue 04:13:56 PM 39.7975 -119.1556 53° Northeast 478 550 31,000 927 Climbing Oakland Center
Tue 04:14:57 PM 39.8775 -119.0158 53° Northeast 478 550 31,900 1,279 Climbing Oakland Center
Tue 04:15:58 PM 39.9550 -118.8792 53° Northeast 470 541 33,600 1,171 Climbing Oakland Center
Tue 04:17:00 PM 40.0303 -118.7475 53° Northeast 455 524 34,300 585 Climbing Oakland Center
Tue 04:18:01 PM 40.1042 -118.6128 54° Northeast 455 524 34,800 344 Climbing Oakland Center
Tue 04:19:02 PM 40.1581 -118.4608 65° Northeast 458 527 35,000 102 Climbing Oakland Center
Tue 04:19:59 PM 40.1953 -118.3228 71° East 456 525 35,000  Level Salt Lake Center
Tue 04:21:01 PM 40.2442 -118.1475 70° East 460 529 35,000  Level Salt Lake Center
Tue 04:22:07 PM 40.2917 -117.9711 71° East 460 529 35,000  Level Oakland Center
Tue 04:23:08 PM 40.3325 -117.8183 71° East 463 533 35,000  Level Oakland Center
Tue 04:24:09 PM 40.3742 -117.6658 70° East 463 533 35,000  Level Oakland Center
Tue 04:25:08 PM 40.4147 -117.5128 71° East 462 532 35,000  Level Salt Lake Center
Tue 04:26:10 PM 40.4617 -117.3325 71° East 465 535 35,000  Level Salt Lake Center
Tue 04:27:12 PM 40.5039 -117.1775 70° East 467 537 35,000  Level Salt Lake Center
Tue 04:28:14 PM 40.5536 -116.9936 70° East 472 543 35,000  Level Salt Lake Center
Tue 04:29:16 PM 40.6025 -116.8378 68° East 473 544 35,000  Level Salt Lake Center
Tue 04:30:18 PM 40.6611 -116.6894 62° Northeast 472 543 35,000  Level Salt Lake Center
Tue 04:31:20 PM 40.7278 -116.5161 63° Northeast 474 545 35,000  Level Salt Lake Center
Tue 04:32:21 PM 40.7853 -116.3675 63° Northeast 473 544 35,000  Level Salt Lake Center
Tue 04:33:23 PM 40.8525 -116.1933 63° Northeast 475 547 35,000  Level Salt Lake Center
Tue 04:34:25 PM 40.9111 -116.0439 63° Northeast 478 550 35,000  Level Salt Lake Center
Tue 04:35:27 PM 40.9778 -115.8683 63° Northeast 478 550 35,000  Level Salt Lake Center
Tue 04:36:29 PM 41.0336 -115.7172 64° Northeast 478 550 35,000  Level Salt Lake Center
Tue 04:37:31 PM 41.0911 -115.5658 63° Northeast 479 551 35,000  Level Salt Lake Center
Tue 04:38:33 PM 41.1578 -115.3881 63° Northeast 482 555 35,000  Level Salt Lake Center
Tue 04:39:34 PM 41.2142 -115.2347 64° Northeast 482 555 35,000  Level Salt Lake Center
Tue 04:40:36 PM 41.2800 -115.0564 64° Northeast 482 555 35,000  Level Salt Lake Center
Tue 04:41:38 PM 41.3361 -114.9022 64° Northeast 482 555 35,000  Level Salt Lake Center
Tue 04:42:40 PM 41.4008 -114.7289 63° Northeast 486 559 35,000  Level Salt Lake Center
Tue 04:43:42 PM 41.4583 -114.5681 64° Northeast 484 557 35,000  Level Salt Lake Center
Tue 04:44:44 PM 41.5181 -114.4053 64° Northeast 487 560 35,000  Level Salt Lake Center
Tue 04:45:45 PM 41.5767 -114.2436 64° Northeast 486 559 35,000  Level Salt Lake Center
Tue 04:46:47 PM 41.6350 -114.0803 64° Northeast 487 560 35,000  Level Salt Lake Center
Tue 04:47:49 PM 41.7044 -113.8850 64° Northeast 486 559 35,000  Level Salt Lake Center
Tue 04:48:51 PM 41.7625 -113.7203 65° Northeast 489 563 35,000  Level Salt Lake Center
Tue 04:49:53 PM 41.8203 -113.5550 65° Northeast 489 563 35,000  Level Salt Lake Center
Tue 04:50:55 PM 41.8781 -113.3906 65° Northeast 489 563 35,000  Level Salt Lake Center
Tue 04:51:57 PM 41.9358 -113.2247 65° Northeast 489 563 35,000  Level Salt Lake Center
Tue 04:52:59 PM 41.9931 -113.0583 65° Northeast 490 564 35,000  Level Salt Lake Center
Tue 04:54:01 PM 42.0494 -112.8914 65° Northeast 490 564 35,000 98 Level Salt Lake Center
Tue 04:55:02 PM 42.1183 -112.6906 65° Northeast 492 566 35,200 390 Climbing Salt Lake Center
Tue 04:56:04 PM 42.1756 -112.5231 65° Northeast 492 566 35,800 629 Climbing Salt Lake Center
Tue 04:57:06 PM 42.2319 -112.3528 66° East 495 570 36,500 581 Climbing Salt Lake Center
Tue 04:58:08 PM 42.2858 -112.1867 66° East 486 559 37,000 242 Climbing Salt Lake Center
Tue 04:59:10 PM 42.3411 -112.0181 66° East 490 564 37,000  Level Salt Lake Center
Tue 05:00:12 PM 42.3956 -111.8481 67° East 492 566 37,000  Level Salt Lake Center
Tue 05:01:14 PM 42.4503 -111.6769 67° East 494 568 37,000  Level Salt Lake Center
Tue 05:02:15 PM 42.5153 -111.4736 66° East 491 565 37,000  Level Salt Lake Center
Tue 05:03:17 PM 42.5689 -111.3039 67° East 490 564 37,000  Level Salt Lake Center
Tue 05:04:19 PM 42.6236 -111.1325 66° East 495 570 37,000  Level Salt Lake Center
Tue 05:05:21 PM 42.6833 -110.9425 67° East 496 571 37,000  Level Salt Lake Center
Tue 05:06:23 PM 42.7353 -110.7733 67° East 505 581 37,000  Level Salt Lake Center
Tue 05:07:25 PM 42.7878 -110.6047 67° East 507 583 37,000  Level Salt Lake Center
Tue 05:08:27 PM 42.8478 -110.4081 67° East 506 582 37,000  Level Salt Lake Center
Tue 05:09:29 PM 42.8989 -110.2378 68° East 508 585 37,000  Level Salt Lake Center
Tue 05:10:30 PM 42.9594 -110.0367 68° East 513 590 37,000  Level Salt Lake Center
Tue 05:11:33 PM 43.0181 -109.8417 68° East 518 596 37,000  Level Salt Lake Center
Tue 05:12:34 PM 43.0711 -109.6650 68° East 521 600 37,000  Level Salt Lake Center
Tue 05:13:36 PM 43.1222 -109.4914 68° East 517 595 37,000  Level Salt Lake Center
Tue 05:14:38 PM 43.1817 -109.2875 68° East 516 594 37,000  Level Salt Lake Center
Tue 05:15:40 PM 43.2322 -109.1125 68° East 516 594 37,000  Level Salt Lake Center
Tue 05:16:42 PM 43.2917 -108.9100 68° East 511 588 37,000  Level Salt Lake Center
Tue 05:17:44 PM 43.3414 -108.7356 69° East 512 589 37,000  Level Salt Lake Center
Tue 05:18:46 PM 43.3989 -108.5325 69° East 511 588 37,000  Level Salt Lake Center
Tue 05:19:48 PM 43.4481 -108.3583 69° East 511 588 37,000  Level Salt Lake Center
Tue 05:20:50 PM 43.5081 -108.1542 68° East 513 590 37,000  Level Salt Lake Center
Tue 05:21:52 PM 43.5603 -107.9808 67° East 513 590 37,000  Level Salt Lake Center
Tue 05:22:54 PM 43.6192 -107.7764 68° East 514 592 37,000  Level Salt Lake Center
Tue 05:23:56 PM 43.6711 -107.6006 68° East 515 593 37,000  Level Salt Lake Center
Tue 05:24:58 PM 43.7303 -107.3958 68° East 514 592 37,000  Level Salt Lake Center
Tue 05:26:00 PM 43.7842 -107.2067 68° East 516 594 37,000  Level Salt Lake Center
Tue 05:27:02 PM 43.8353 -107.0294 68° East 517 595 37,000  Level Salt Lake Center
Tue 05:28:04 PM 43.8847 -106.8522 69° East 515 593 37,000  Level Salt Lake Center
Tue 05:29:22 PM 43.9600 -106.5831 69° East 518 596 37,000  Level Denver Center
Tue 05:30:23 PM 44.0008 -106.4328 69° East 519 597 37,000  Level Denver Center
Tue 05:31:10 PM 44.0486 -106.2519 70° East 521 600 37,000  Level Salt Lake Center
Tue 05:32:12 PM 44.0944 -106.0689 71° East 522 601 37,000  Level Salt Lake Center
Tue 05:33:14 PM 44.1461 -105.8600 71° East 516 594 37,000  Level Salt Lake Center
Tue 05:34:16 PM 44.1906 -105.6775 71° East 517 595 37,000  Level Salt Lake Center
Tue 05:35:18 PM 44.2436 -105.4642 71° East 519 597 37,000  Level Salt Lake Center
Tue 05:36:20 PM 44.2875 -105.2828 71° East 517 595 37,000  Level Salt Lake Center
Tue 05:37:22 PM 44.3378 -105.0706 72° East 516 594 37,000  Level Salt Lake Center
Tue 05:38:24 PM 44.3808 -104.8878 72° East 516 594 37,000  Level Salt Lake Center
Tue 05:39:42 PM 44.4378 -104.6414 72° East 516 594 37,000  Level Denver Center
Tue 05:40:44 PM 44.4875 -104.4336 71° East 510 587 37,000  Level Denver Center
Tue 05:41:58 PM 44.5294 -104.2514 72° East 513 590 37,000  Level Denver Center
Tue 05:43:01 PM 44.5822 -104.0033 73° East 519 597 37,000  Level Denver Center
Tue 05:44:03 PM 44.5894 -103.8081 87° East 527 606 37,000  Level Denver Center
Tue 05:45:05 PM 44.5947 -103.5803 88° East 524 603 37,000  Level Denver Center
Tue 05:46:07 PM 44.5989 -103.4056 88° East 523 602 37,000  Level Denver Center
Tue 05:47:09 PM 44.6033 -103.1622 88° East 522 601 37,000  Level Denver Center
Tue 05:48:11 PM 44.6075 -102.9592 88° East 522 601 37,000  Level Denver Center
Tue 05:49:13 PM 44.6100 -102.7550 89° East 523 602 37,000  Level Denver Center
Tue 05:50:15 PM 44.6128 -102.5511 89° East 524 603 37,000  Level Denver Center
Tue 05:51:17 PM 44.6150 -102.3883 89° East 524 603 37,000  Level Denver Center
Tue 05:52:19 PM 44.6186 -102.1439 89° East 523 602 37,000  Level Denver Center
Tue 05:53:21 PM 44.6200 -101.8981 89° East 525 604 37,000  Level Denver Center
Tue 05:54:23 PM 44.6194 -101.6933 90° East 526 605 37,000  Level Denver Center
Tue 05:55:25 PM 44.6203 -101.4989 90° East 509 586 37,000  Level Denver Center
Tue 05:56:27 PM 44.6217 -101.3033 89° East 503 579 37,000  Level Denver Center
Tue 05:57:29 PM 44.6208 -101.1069 90° East 504 580 37,000  Level Denver Center
Tue 05:58:31 PM 44.6200 -100.9128 90° East 502 578 37,000  Level Denver Center
Tue 05:59:56 PM 44.6194 -100.6028 90° East 502 578 37,000  Level Minneapolis Center
Tue 06:00:58 PM 44.6186 -100.4089 90° East 501 577 37,000  Level Minneapolis Center
Tue 06:02:00 PM 44.6172 -100.2142 91° East 504 580 37,000  Level Minneapolis Center
Tue 06:03:02 PM 44.6158 -100.0236 91° East 497 572 37,000  Level Minneapolis Center
Tue 06:04:04 PM 44.6136 -99.8319 91° East 497 572 37,000  Level Minneapolis Center
Tue 06:05:06 PM 44.6111 -99.6017 91° East 497 572 37,000  Level Minneapolis Center
Tue 06:06:21 PM 44.6089 -99.3725 91° East 494 568 37,000  Level Minneapolis Center
Tue 06:07:23 PM 44.6058 -99.1811 91° East 494 568 37,000  Level Minneapolis Center
Tue 06:08:25 PM 44.6028 -98.9903 91° East 493 567 37,000  Level Minneapolis Center
Tue 06:09:27 PM 44.6000 -98.8372 91° East 493 567 37,000  Level Minneapolis Center
Tue 06:10:29 PM 44.5936 -98.5697 92° East 492 566 37,000  Level Minneapolis Center
Tue 06:11:31 PM 44.5897 -98.3781 92° East 492 566 37,000  Level Minneapolis Center
Tue 06:12:33 PM 44.5875 -98.2003 91° East 494 568 37,000  Level Minneapolis Center
Tue 06:13:35 PM 44.5806 -98.0089 93° East 493 567 37,000  Level Minneapolis Center
Tue 06:14:38 PM 44.5744 -97.7781 92° East 494 568 37,000  Level Minneapolis Center
Tue 06:15:40 PM 44.5689 -97.5794 92° East 507 583 37,000  Level Minneapolis Center
Tue 06:16:42 PM 44.5619 -97.3783 93° East 516 594 37,000 -397 Level Minneapolis Center
Tue 06:17:56 PM 44.5542 -97.1772 93° East 517 595 36,100 -882 Descending Minneapolis Center
Tue 06:18:58 PM 44.5464 -96.9392 93° East 510 587 35,000 -920 Descending Minneapolis Center
Tue 06:20:13 PM 44.5392 -96.7406 93° East 508 585 34,000 -876 Descending Minneapolis Center
Tue 06:21:15 PM 44.5283 -96.4669 93° East 501 577 33,000 -581 Descending Minneapolis Center
Tue 06:22:17 PM 44.5222 -96.2742 92° East 492 566 32,800 -532 Descending Minneapolis Center
Tue 06:23:19 PM 44.5136 -96.0806 94° East 492 566 31,900 -919 Descending Minneapolis Center
Tue 06:24:21 PM 44.5050 -95.8911 94° East 486 559 30,900 -919 Descending Minneapolis Center
Tue 06:25:23 PM 44.4969 -95.7058 93° East 477 549 30,000 -823 Descending Minneapolis Center
Tue 06:26:25 PM 44.4897 -95.5625 94° East 467 537 29,200 -1,016 Descending Minneapolis Center
Tue 06:27:27 PM 44.4789 -95.3486 94° East 460 529 27,900 -1,872 Descending Minneapolis Center
Tue 06:28:30 PM 44.4703 -95.1414 93° East 449 517 25,300 -2,256 Descending Minneapolis Center
Tue 06:29:32 PM 44.5019 -94.9878 74° East 418 481 23,200 -1,742 Descending Minneapolis Center
Tue 06:30:34 PM 44.5375 -94.8350 72° East 411 473 21,700 -1,790 Descending Minneapolis Center
Tue 06:31:36 PM 44.5750 -94.6769 72° East 425 489 19,500 -2,323 Descending Minneapolis Center
Tue 06:32:38 PM 44.6128 -94.5119 72° East 411 473 16,900 -2,371 Descending Minneapolis Center
Tue 06:33:40 PM 44.6464 -94.3658 72° East 397 457 14,600 -2,274 Descending Minneapolis Center
Tue 06:34:42 PM 44.6783 -94.2247 72° East 381 438 12,200 -1,742 Descending Minneapolis Center
Tue 06:35:44 PM 44.7094 -94.0847 73° East 373 429 11,000 -509 Descending Minneapolis Center
Tue 06:37:27 PM 44.7667 -93.8333 72° East 349 402 10,800 -362 Descending Minneapolis TRACON
Tue 06:38:13 PM 44.7864 -93.7419 73° East 321 369 10,100 -1,000 Descending Minneapolis Center
Tue 06:39:15 PM 44.8108 -93.6297 73° East 299 344 9,000 -528 Descending Minneapolis Center
Tue 06:40:18 PM 44.8356 -93.5172 73° East 299 344 9,000 -48 Level Minneapolis Center
Tue 06:41:20 PM 44.8589 -93.4089 73° East 288 331 8,900 -435 Descending Minneapolis Center
Tue 06:42:22 PM 44.8467 -93.3356 103° East 263 303 8,100 -912 Descending Minneapolis Center
Tue 06:43:25 PM 44.7528 -93.3264 176° South 251 289 7,000 -1,104 Descending Minneapolis Center
Tue 06:44:27 PM 44.6858 -93.3150 173° South 252 290 5,800 -1,113 Descending Minneapolis Center
Tue 06:45:29 PM 44.6839 -93.2483 92° East 209 241 4,700 -1,065 Descending Minneapolis Center

Login

Don't have an account? Register now (free) for customized features, flight alerts, and more!